Time;durP1;ratioP1;P1;durP2;ratioP2;P2;SDS_P1;SDS_P2;PMS_P1;PMS_P2;Temp;Humidity;BMP_temperature;BMP_pressure;BME280_temperature;BME280_humidity;BME280_pressure;Samples;Min_cycle;Max_cycle;Signal;HPM_P1;HPM_P2
2024/03/15 00:00:59;;;;;;;12.10;6.78;;;;;;;9.89;100.00;100034.00;5144020;28;20035;-72
2024/03/15 00:03:29;;;;;;;12.90;7.40;;;;;;;9.92;100.00;100031.25;5140374;28;20041;-74
2024/03/15 00:06:00;;;;;;;10.85;6.45;;;;;;;9.91;100.00;100032.16;5146548;28;20056;-73
2024/03/15 00:08:32;;;;;;;12.65;7.03;;;;;;;9.93;100.00;100032.94;5144326;28;20109;-75
2024/03/15 00:11:03;;;;;;;10.77;6.32;;;;;;;10.05;100.00;100025.50;5139805;28;20030;-74
2024/03/15 00:13:33;;;;;;;12.57;5.90;;;;;;;10.14;100.00;100026.88;5137231;28;20037;-74
2024/03/15 00:16:04;;;;;;;9.23;6.20;;;;;;;10.14;100.00;100019.06;5136633;28;20519;-74
2024/03/15 00:18:36;;;;;;;10.30;5.80;;;;;;;10.02;100.00;100017.78;5138643;28;20031;-74
2024/03/15 00:21:07;;;;;;;9.75;5.80;;;;;;;9.94;100.00;100014.63;5139103;28;20085;-74
2024/03/15 00:23:37;;;;;;;10.07;6.20;;;;;;;9.98;100.00;100021.41;5140346;28;20026;-72
2024/03/15 00:26:08;;;;;;;9.98;6.43;;;;;;;9.97;100.00;100013.66;5140814;28;20044;-74
2024/03/15 00:28:39;;;;;;;10.15;6.30;;;;;;;9.85;100.00;100025.44;5140689;28;20245;-74
2024/03/15 00:31:10;;;;;;;10.95;6.72;;;;;;;9.91;100.00;100019.97;5138849;28;20022;-74
2024/03/15 00:33:40;;;;;;;11.70;6.22;;;;;;;10.00;100.00;100003.09;5141480;28;20031;-74
2024/03/15 00:36:13;;;;;;;11.70;6.40;;;;;;;9.97;100.00;100003.22;5139580;28;20038;-74
2024/03/15 00:38:44;;;;;;;11.02;6.38;;;;;;;9.95;100.00;99999.81;5140285;28;20405;-74
2024/03/15 00:41:15;;;;;;;10.70;6.45;;;;;;;10.06;100.00;99998.50;5142141;28;20027;-73
2024/03/15 00:43:45;;;;;;;9.73;6.03;;;;;;;9.93;100.00;99997.28;5140857;28;20064;-73
2024/03/15 00:46:17;;;;;;;9.77;5.95;;;;;;;9.89;100.00;99994.84;5139405;28;20058;-74
2024/03/15 00:48:48;;;;;;;9.77;6.20;;;;;;;9.94;100.00;100001.56;5139508;28;20023;-74
2024/03/15 00:51:20;;;;;;;7.18;5.05;;;;;;;9.89;100.00;99997.47;5139895;28;20475;-74
2024/03/15 00:53:50;;;;;;;9.15;5.20;;;;;;;9.91;100.00;99993.03;5135870;28;20123;-74
2024/03/15 00:56:21;;;;;;;9.13;5.80;;;;;;;9.94;100.00;99992.88;5136212;28;20098;-74
2024/03/15 00:58:52;;;;;;;8.18;5.35;;;;;;;10.00;100.00;99988.25;5134944;28;20562;-74
2024/03/15 01:01:22;;;;;;;8.82;5.22;;;;;;;10.06;100.00;99984.56;5136998;28;20035;-74
2024/03/15 01:03:52;;;;;;;8.60;5.45;;;;;;;10.19;100.00;99980.53;5137614;28;20050;-72
2024/03/15 01:06:23;;;;;;;7.38;4.72;;;;;;;10.21;100.00;99976.09;5137093;28;20027;-73
2024/03/15 01:08:53;;;;;;;7.00;4.90;;;;;;;10.23;100.00;99967.28;5137967;28;20034;-74
2024/03/15 01:11:24;;;;;;;7.88;4.70;;;;;;;10.30;100.00;99966.09;5137658;28;20050;-74
2024/03/15 01:13:57;;;;;;;8.68;4.40;;;;;;;10.25;100.00;99968.06;5136199;28;20037;-74
2024/03/15 01:16:27;;;;;;;7.30;4.82;;;;;;;10.24;100.00;99965.50;5141654;28;20023;-75
2024/03/15 01:18:59;;;;;;;6.80;4.22;;;;;;;10.24;100.00;99955.06;5136037;28;20470;-74
2024/03/15 01:21:29;;;;;;;6.57;3.90;;;;;;;10.24;100.00;99957.66;5139457;28;20369;-73
2024/03/15 01:24:00;;;;;;;7.38;3.90;;;;;;;10.30;100.00;99954.78;5142724;28;20210;-74
2024/03/15 01:26:30;;;;;;;7.20;4.50;;;;;;;10.22;100.00;99955.13;5139937;28;20063;-74
2024/03/15 01:29:00;;;;;;;9.43;4.68;;;;;;;10.17;100.00;99956.25;5139059;28;20118;-74
2024/03/15 01:31:30;;;;;;;6.97;4.57;;;;;;;10.07;100.00;99947.09;5137989;28;20026;-74
2024/03/15 01:34:01;;;;;;;7.22;4.57;;;;;;;10.05;100.00;99941.09;5138250;28;20022;-74
2024/03/15 01:36:31;;;;;;;7.68;4.75;;;;;;;9.97;100.00;99951.03;5140542;28;20033;-75
2024/03/15 01:39:02;;;;;;;9.43;5.18;;;;;;;9.97;100.00;99945.78;5138327;28;20033;-74
2024/03/15 01:41:32;;;;;;;9.63;5.40;;;;;;;9.96;100.00;99941.50;5139834;28;20572;-74
2024/03/15 01:44:02;;;;;;;6.55;4.70;;;;;;;9.90;100.00;99944.34;5136851;28;20261;-74
2024/03/15 01:46:35;;;;;;;8.25;4.50;;;;;;;9.92;100.00;99947.72;5131766;28;20030;-74
2024/03/15 01:49:06;;;;;;;8.10;4.63;;;;;;;9.84;100.00;99945.44;5133866;28;20110;-75
2024/03/15 01:51:36;;;;;;;6.68;4.30;;;;;;;9.95;100.00;99947.59;5139478;28;20405;-73
2024/03/15 01:54:07;;;;;;;7.50;4.38;;;;;;;10.06;100.00;99942.81;5142979;28;20031;-74
2024/03/15 01:56:37;;;;;;;7.95;4.88;;;;;;;10.08;100.00;99944.44;5142704;28;20050;-74
2024/03/15 01:59:11;;;;;;;7.63;4.75;;;;;;;10.03;100.00;99940.34;5138747;28;20057;-75
2024/03/15 02:01:41;;;;;;;6.50;4.63;;;;;;;10.05;100.00;99939.38;5144363;28;20486;-75
2024/03/15 02:04:12;;;;;;;8.45;4.63;;;;;;;10.14;100.00;99938.13;5139920;28;20037;-75
2024/03/15 02:06:42;;;;;;;6.47;4.55;;;;;;;10.03;100.00;99937.72;5139679;28;20272;-75
2024/03/15 02:09:12;;;;;;;6.03;3.85;;;;;;;10.18;100.00;99931.84;5144929;28;20034;-75
2024/03/15 02:11:42;;;;;;;7.93;4.25;;;;;;;10.34;100.00;99938.06;5140733;28;20023;-74
2024/03/15 02:14:14;;;;;;;8.50;4.18;;;;;;;10.44;100.00;99928.88;5142981;28;20476;-74
2024/03/15 02:16:44;;;;;;;6.97;4.30;;;;;;;10.48;100.00;99931.31;5139873;28;20502;-74
2024/03/15 02:19:14;;;;;;;9.20;4.28;;;;;;;10.45;100.00;99925.34;5141416;28;20038;-74
2024/03/15 02:21:48;;;;;;;7.15;4.28;;;;;;;10.55;100.00;99921.44;5141806;28;20318;-74
2024/03/15 02:24:19;;;;;;;7.10;4.47;;;;;;;10.57;100.00;99928.28;5144598;28;20499;-74
2024/03/15 02:26:50;;;;;;;6.00;3.90;;;;;;;10.59;100.00;99923.84;5140750;28;20041;-75
2024/03/15 02:29:20;;;;;;;7.13;4.20;;;;;;;10.65;100.00;99920.09;5136458;28;20398;-75
2024/03/15 02:31:51;;;;;;;7.22;4.00;;;;;;;10.67;100.00;99913.84;5140621;28;20034;-74
2024/03/15 02:34:21;;;;;;;6.95;4.22;;;;;;;10.60;100.00;99925.53;5136751;28;20030;-75
2024/03/15 02:36:52;;;;;;;9.65;4.55;;;;;;;10.56;100.00;99930.94;5137193;28;20065;-74
2024/03/15 02:39:24;;;;;;;7.82;4.40;;;;;;;10.58;100.00;99924.75;5136093;28;20034;-74
2024/03/15 02:41:54;;;;;;;8.10;4.65;;;;;;;10.61;100.00;99921.13;5140314;28;20061;-74
2024/03/15 02:44:25;;;;;;;7.30;4.45;;;;;;;10.54;100.00;99922.34;5136673;28;20605;-73
2024/03/15 02:46:56;;;;;;;7.45;3.90;;;;;;;10.51;100.00;99922.50;5137637;28;20100;-73
2024/03/15 02:49:27;;;;;;;5.80;4.10;;;;;;;10.32;100.00;99925.06;5140856;28;20018;-74
2024/03/15 02:51:57;;;;;;;6.68;4.38;;;;;;;10.27;100.00;99924.44;5139553;28;20035;-74
2024/03/15 02:54:28;;;;;;;7.28;4.00;;;;;;;10.12;100.00;99929.47;5132754;28;20154;-74
2024/03/15 02:56:58;;;;;;;7.05;4.22;;;;;;;10.14;100.00;99917.22;5137910;28;20031;-73
2024/03/15 02:59:29;;;;;;;7.95;4.78;;;;;;;10.11;100.00;99925.16;5135720;28;20109;-75
2024/03/15 03:01:59;;;;;;;6.07;4.05;;;;;;;10.32;100.00;99926.84;5136584;28;20565;-74
2024/03/15 03:04:29;;;;;;;7.20;4.47;;;;;;;10.33;100.00;99920.72;5135939;28;20308;-74
2024/03/15 03:07:00;;;;;;;6.65;4.40;;;;;;;10.34;100.00;99914.56;5134522;28;20046;-74
2024/03/15 03:09:31;;;;;;;7.30;4.65;;;;;;;10.40;100.00;99909.06;5135722;28;20553;-73
2024/03/15 03:12:01;;;;;;;8.45;4.30;;;;;;;10.42;100.00;99902.84;5136623;28;20034;-74
2024/03/15 03:14:33;;;;;;;6.70;4.57;;;;;;;10.40;100.00;99912.53;5135366;28;20023;-74
2024/03/15 03:17:04;;;;;;;6.75;4.40;;;;;;;10.38;100.00;99908.28;5137535;28;20054;-74
2024/03/15 03:19:34;;;;;;;7.40;4.75;;;;;;;10.40;100.00;99904.69;5135448;28;20031;-74
2024/03/15 03:22:06;;;;;;;8.43;4.70;;;;;;;10.40;100.00;99909.06;5136197;28;20019;-72
2024/03/15 03:24:36;;;;;;;8.70;4.80;;;;;;;10.41;100.00;99910.75;5138316;28;20031;-74
2024/03/15 03:27:06;;;;;;;8.48;5.20;;;;;;;10.45;100.00;99902.72;5135495;28;20103;-72
2024/03/15 03:29:36;;;;;;;7.45;4.70;;;;;;;10.40;100.00;99903.84;5133351;28;20026;-75
2024/03/15 03:32:07;;;;;;;8.57;5.10;;;;;;;10.41;100.00;99914.22;5134357;28;20058;-72
2024/03/15 03:34:38;;;;;;;10.35;4.85;;;;;;;10.46;100.00;99908.75;5137287;28;20367;-72
2024/03/15 03:37:08;;;;;;;6.90;4.75;;;;;;;10.49;100.00;99900.81;5135233;28;20034;-74
2024/03/15 03:39:39;;;;;;;12.85;6.82;;;;;;;10.50;100.00;99894.66;5137790;28;20031;-75
2024/03/15 03:42:11;;;;;;;10.70;5.38;;;;;;;10.55;100.00;99903.13;5136960;28;20035;-74
2024/03/15 03:44:41;;;;;;;8.82;5.45;;;;;;;10.52;100.00;99904.13;5136638;28;20031;-74
2024/03/15 03:47:12;;;;;;;9.20;4.95;;;;;;;10.48;100.00;99899.94;5132382;28;20033;-74
2024/03/15 03:49:42;;;;;;;9.48;5.15;;;;;;;10.36;100.00;99894.44;5134577;28;20049;-74
2024/03/15 03:52:14;;;;;;;9.50;4.93;;;;;;;10.23;100.00;99895.91;5140052;28;20023;-74
2024/03/15 03:54:44;;;;;;;7.25;4.80;;;;;;;10.19;100.00;99900.41;5137149;28;20063;-74
2024/03/15 03:57:23;;;;;;;8.13;4.85;;;;;;;10.06;100.00;99898.44;5141019;28;20026;-74
2024/03/15 03:59:54;;;;;;;7.15;4.32;;;;;;;10.10;100.00;99905.19;5139379;28;20030;-74
2024/03/15 04:02:25;;;;;;;10.93;5.22;;;;;;;10.01;100.00;99892.53;5120208;28;20034;-74
2024/03/15 04:04:55;;;;;;;7.93;4.68;;;;;;;10.04;100.00;99895.03;5136749;28;20031;-75
2024/03/15 04:07:29;;;;;;;8.82;5.25;;;;;;;10.10;100.00;99889.53;5137552;28;20046;-74
2024/03/15 04:09:59;;;;;;;7.80;5.10;;;;;;;10.20;100.00;99890.84;5139220;28;20514;-74
2024/03/15 04:12:29;;;;;;;10.02;5.28;;;;;;;10.25;100.00;99883.63;5140003;28;20034;-74
2024/03/15 04:15:00;;;;;;;9.30;5.18;;;;;;;10.28;100.00;99878.25;5137359;28;20491;-73
2024/03/15 04:17:30;;;;;;;8.07;5.20;;;;;;;10.22;100.00;99879.41;5138158;28;20027;-74
2024/03/15 04:20:01;;;;;;;8.60;5.32;;;;;;;10.16;100.00;99879.66;5142129;28;20035;-74
2024/03/15 04:22:31;;;;;;;8.10;5.00;;;;;;;10.20;100.00;99877.78;5136077;28;20057;-74
2024/03/15 04:25:01;;;;;;;7.82;4.88;;;;;;;10.30;100.00;99873.81;5137289;28;20061;-75
2024/03/15 04:27:35;;;;;;;8.57;4.93;;;;;;;10.34;100.00;99872.78;5137912;28;20027;-74
2024/03/15 04:30:16;;;;;;;7.22;4.90;;;;;;;10.26;100.00;99874.88;5138383;28;20053;-74
2024/03/15 04:32:46;;;;;;;8.88;4.18;;;;;;;10.20;100.00;99880.38;5138379;28;20034;-75
2024/03/15 04:35:17;;;;;;;8.00;4.68;;;;;;;10.11;100.00;99880.78;5136322;28;20486;-74
2024/03/15 04:37:48;;;;;;;9.43;5.10;;;;;;;10.13;100.00;99889.44;5134418;28;20058;-75
2024/03/15 04:40:19;;;;;;;9.20;4.90;;;;;;;10.04;100.00;99887.22;5137308;28;20442;-74
2024/03/15 04:42:49;;;;;;;8.15;4.75;;;;;;;10.02;100.00;99883.81;5136307;28;20027;-74
2024/03/15 04:45:20;;;;;;;11.13;4.78;;;;;;;9.85;100.00;99886.28;5139029;28;20034;-75
2024/03/15 04:47:51;;;;;;;9.05;5.15;;;;;;;9.84;100.00;99882.81;5137795;28;20531;-74
2024/03/15 04:50:21;;;;;;;7.88;4.93;;;;;;;9.74;100.00;99878.06;5134223;28;20023;-74
2024/03/15 04:52:52;;;;;;;6.57;4.45;;;;;;;9.73;100.00;99885.06;5137719;28;20026;-72
2024/03/15 04:55:22;;;;;;;7.85;4.95;;;;;;;9.71;100.00;99891.25;5137075;28;20089;-73
2024/03/15 04:57:53;;;;;;;7.65;4.80;;;;;;;9.71;100.00;99899.09;5135777;28;20513;-74
2024/03/15 05:00:23;;;;;;;7.63;5.22;;;;;;;9.74;100.00;99898.94;5134622;28;20046;-74
2024/03/15 05:02:53;;;;;;;8.55;4.65;;;;;;;9.74;100.00;99901.56;5136887;28;20367;-74
2024/03/15 05:05:25;;;;;;;8.20;5.00;;;;;;;9.80;100.00;99894.31;5133421;28;20023;-74
2024/03/15 05:07:56;;;;;;;11.57;5.13;;;;;;;9.84;100.00;99892.44;5138856;28;20057;-74
2024/03/15 05:10:26;;;;;;;7.85;4.80;;;;;;;9.79;100.00;99891.78;5144232;28;20023;-74
2024/03/15 05:12:56;;;;;;;9.68;4.97;;;;;;;9.74;100.00;99899.81;5140618;28;20042;-74
2024/03/15 05:15:27;;;;;;;8.23;4.97;;;;;;;9.73;100.00;99900.72;5137480;28;20089;-74
2024/03/15 05:17:58;;;;;;;8.15;5.05;;;;;;;9.76;100.00;99899.72;5138577;28;20070;-74
2024/03/15 05:20:29;;;;;;;10.00;4.63;;;;;;;9.68;100.00;99897.44;5137551;28;20033;-74
2024/03/15 05:22:59;;;;;;;8.20;5.15;;;;;;;9.76;100.00;99900.59;5138734;28;20395;-74
2024/03/15 05:25:30;;;;;;;9.77;4.90;;;;;;;9.71;100.00;99897.34;5138103;28;20038;-74
2024/03/15 05:28:01;;;;;;;8.75;4.85;;;;;;;9.56;100.00;99902.34;5140624;28;20031;-74
2024/03/15 05:30:31;;;;;;;7.40;4.70;;;;;;;9.54;100.00;99899.81;5138471;28;20114;-74
2024/03/15 05:33:02;;;;;;;8.15;4.47;;;;;;;9.49;100.00;99899.13;5139958;28;20031;-74
2024/03/15 05:35:32;;;;;;;8.40;4.85;;;;;;;9.50;100.00;99897.38;5137733;28;20545;-74
2024/03/15 05:38:02;;;;;;;9.18;4.95;;;;;;;9.47;100.00;99895.75;5140075;28;20061;-74
2024/03/15 05:40:33;;;;;;;10.82;5.22;;;;;;;9.49;100.00;99880.88;5137961;28;20026;-73
2024/03/15 05:43:03;;;;;;;7.35;4.45;;;;;;;9.42;100.00;99884.66;5140574;28;20041;-74
2024/03/15 05:45:33;;;;;;;8.52;4.90;;;;;;;9.47;100.00;99880.09;5137659;28;20509;-74
2024/03/15 05:48:04;;;;;;;8.50;5.07;;;;;;;9.41;100.00;99887.31;5139720;28;20045;-74
2024/03/15 05:50:35;;;;;;;6.95;4.40;;;;;;;9.41;100.00;99888.19;5138693;28;20292;-74
2024/03/15 05:53:05;;;;;;;11.63;5.53;;;;;;;9.42;100.00;99894.25;5137445;28;20711;-73
2024/03/15 05:55:35;;;;;;;10.75;5.43;;;;;;;9.53;100.00;99898.13;5139019;28;20073;-74
2024/03/15 05:58:06;;;;;;;10.00;5.50;;;;;;;9.67;100.00;99895.75;5137536;28;20135;-74
2024/03/15 06:00:36;;;;;;;7.85;4.93;;;;;;;9.83;100.00;99890.72;5138441;28;20027;-74
2024/03/15 06:03:08;;;;;;;9.70;5.60;;;;;;;10.01;100.00;99895.16;5137083;28;20034;-74
2024/03/15 06:05:38;;;;;;;9.65;5.80;;;;;;;10.20;100.00;99890.84;5141192;28;20019;-74
2024/03/15 06:08:10;;;;;;;10.05;5.57;;;;;;;10.27;100.00;99902.69;5139876;28;20077;-74
2024/03/15 06:10:40;;;;;;;8.98;5.63;;;;;;;10.40;100.00;99893.38;5138845;28;20031;-75
2024/03/15 06:13:11;;;;;;;10.82;5.55;;;;;;;10.49;100.00;99892.97;5138870;28;20030;-74
2024/03/15 06:15:43;;;;;;;9.73;5.75;;;;;;;10.53;100.00;99881.47;5141841;28;20410;-74
2024/03/15 06:18:15;;;;;;;9.00;5.47;;;;;;;10.59;100.00;99884.63;5136980;28;20030;-73
2024/03/15 06:20:45;;;;;;;9.85;5.28;;;;;;;10.63;100.00;99890.53;5139796;28;20106;-75
2024/03/15 06:23:15;;;;;;;8.90;5.78;;;;;;;10.76;100.00;99892.53;5138888;28;20569;-75
2024/03/15 06:25:46;;;;;;;8.90;5.20;;;;;;;10.83;100.00;99893.09;5138785;28;20038;-75
2024/03/15 06:28:19;;;;;;;10.23;5.88;;;;;;;10.95;100.00;99902.94;5133181;28;20365;-75
2024/03/15 06:30:53;;;;;;;8.38;5.28;;;;;;;11.09;100.00;99891.75;5140543;28;20026;-74
2024/03/15 06:33:28;;;;;;;10.48;5.63;;;;;;;11.23;100.00;99894.56;5137195;28;20027;-74
2024/03/15 06:36:03;;;;;;;10.48;5.20;;;;;;;11.40;100.00;99897.19;5139345;28;20030;-74
2024/03/15 06:49:54;;;;;;;9.50;4.80;;;;;;;12.16;100.00;99915.94;5130566;28;20470;-75
2024/03/15 06:52:37;;;;;;;8.13;4.88;;;;;;;12.33;100.00;99907.19;5133284;28;20034;-75
2024/03/15 06:55:08;;;;;;;8.18;4.38;;;;;;;12.52;100.00;99894.78;5135558;28;20038;-74
2024/03/15 06:57:39;;;;;;;7.55;4.60;;;;;;;12.69;100.00;99892.09;5133942;28;20030;-74
2024/03/15 07:00:10;;;;;;;7.38;4.43;;;;;;;12.90;100.00;99895.22;5137603;28;20027;-71
2024/03/15 07:02:43;;;;;;;6.97;4.13;;;;;;;13.06;100.00;99887.38;5140768;28;20022;-73
2024/03/15 07:05:14;;;;;;;7.85;4.38;;;;;;;13.29;100.00;99887.78;5134539;28;20039;-71
2024/03/15 07:07:45;;;;;;;6.50;4.15;;;;;;;13.25;100.00;99891.47;5134155;28;20502;-74
2024/03/15 07:10:15;;;;;;;8.35;4.32;;;;;;;13.48;100.00;99895.41;5126336;28;20094;-73
2024/03/15 07:12:46;;;;;;;7.70;4.35;;;;;;;13.74;100.00;99892.13;5129441;28;20041;-73
2024/03/15 07:15:18;;;;;;;7.97;4.55;;;;;;;13.86;100.00;99884.34;5137264;28;20490;-73
2024/03/15 07:17:49;;;;;;;6.32;3.97;;;;;;;14.08;100.00;99879.47;5137479;28;20402;-74
2024/03/15 07:20:19;;;;;;;11.48;3.70;;;;;;;14.23;97.87;99885.63;5135803;28;20038;-73
2024/03/15 07:22:49;;;;;;;8.13;3.80;;;;;;;14.70;93.92;99883.50;5137673;28;20517;-74
2024/03/15 07:25:19;;;;;;;7.45;3.67;;;;;;;14.97;93.05;99887.84;5136605;28;20033;-73
2024/03/15 07:27:51;;;;;;;6.68;3.30;;;;;;;15.09;91.08;99877.41;5133818;28;20029;-74
2024/03/15 07:30:22;;;;;;;6.68;3.53;;;;;;;15.43;89.71;99879.53;5131037;28;20505;-73
2024/03/15 07:32:52;;;;;;;7.78;3.60;;;;;;;15.58;88.51;99870.63;5123065;28;20044;-72
2024/03/15 07:35:27;;;;;;;6.32;3.60;;;;;;;16.99;85.29;99868.47;5126815;28;20018;-73
2024/03/15 07:37:58;;;;;;;4.60;2.97;;;;;;;18.45;76.92;99863.38;5132718;28;20055;-74
2024/03/15 07:40:29;;;;;;;6.30;2.85;;;;;;;18.99;74.55;99865.97;5130564;28;20033;-74
2024/03/15 07:43:00;;;;;;;4.40;2.85;;;;;;;20.94;68.60;99870.31;5128428;28;20502;-74
2024/03/15 07:45:31;;;;;;;5.32;2.75;;;;;;;21.51;66.24;99865.91;5130513;28;20030;-74
2024/03/15 07:48:01;;;;;;;4.47;2.70;;;;;;;21.87;67.30;99862.53;5136779;28;20218;-74
2024/03/15 07:50:31;;;;;;;4.00;2.50;;;;;;;21.33;67.65;99866.72;5140109;28;20052;-74
2024/03/15 07:53:03;;;;;;;4.13;2.60;;;;;;;21.12;65.35;99877.50;5135455;28;20053;-74
2024/03/15 07:55:34;;;;;;;4.38;2.70;;;;;;;21.05;66.77;99878.19;5136191;28;20844;-74
2024/03/15 07:58:04;;;;;;;6.45;2.40;;;;;;;21.48;67.62;99875.97;5134335;28;20803;-73
2024/03/15 08:00:36;;;;;;;3.70;2.25;;;;;;;21.80;64.65;99874.75;5139427;28;20042;-74
2024/03/15 08:03:06;;;;;;;5.95;2.50;;;;;;;21.76;64.05;99872.50;5139496;28;20406;-74
2024/03/15 08:05:39;;;;;;;5.70;2.30;;;;;;;22.55;63.52;99870.19;5130477;28;20026;-74
2024/03/15 08:08:09;;;;;;;4.75;2.60;;;;;;;22.03;63.52;99880.56;5137238;28;20058;-71
2024/03/15 08:10:40;;;;;;;3.85;2.20;;;;;;;21.59;64.58;99875.84;5138576;28;20058;-73
2024/03/15 08:13:12;;;;;;;4.85;2.63;;;;;;;20.97;66.63;99878.00;5137211;28;20074;-70
2024/03/15 08:15:42;;;;;;;5.43;2.55;;;;;;;19.96;68.79;99880.72;5138926;28;20394;-74
2024/03/15 08:18:15;;;;;;;4.57;2.63;;;;;;;18.97;69.89;99889.06;5136756;28;20298;-74
2024/03/15 08:20:47;;;;;;;7.60;2.70;;;;;;;18.83;72.50;99889.34;5139416;28;20081;-74
2024/03/15 08:23:18;;;;;;;5.10;2.80;;;;;;;18.50;73.08;99891.19;5138060;28;20133;-74
2024/03/15 08:25:49;;;;;;;4.45;2.47;;;;;;;18.95;74.00;99887.53;5138836;28;20102;-74
2024/03/15 08:28:19;;;;;;;6.60;2.50;;;;;;;20.54;70.61;99888.06;5138652;28;20869;-74
2024/03/15 08:30:49;;;;;;;5.05;2.53;;;;;;;22.31;64.59;99871.66;5139477;28;20060;-74
2024/03/15 08:33:20;;;;;;;4.90;2.33;;;;;;;23.32;63.20;99868.78;5139680;28;20022;-74
2024/03/15 08:35:50;;;;;;;4.32;2.30;;;;;;;23.44;61.01;99879.09;5139449;28;20076;-73
2024/03/15 08:38:21;;;;;;;7.43;2.13;;;;;;;22.95;62.41;99882.19;5139499;28;20501;-74
2024/03/15 08:40:52;;;;;;;5.10;2.25;;;;;;;21.00;65.43;99885.72;5140116;28;20153;-74
2024/03/15 08:43:22;;;;;;;5.10;2.67;;;;;;;20.23;67.63;99881.06;5142588;28;20030;-73
2024/03/15 08:45:52;;;;;;;6.45;2.30;;;;;;;19.82;69.08;99888.19;5143217;28;20120;-74
2024/03/15 08:48:23;;;;;;;5.68;2.33;;;;;;;20.01;69.37;99898.91;5143059;28;20059;-74
2024/03/15 08:50:53;;;;;;;5.13;2.50;;;;;;;19.94;69.85;99898.59;5143157;28;20345;-73
2024/03/15 08:53:24;;;;;;;4.72;2.40;;;;;;;19.66;70.02;99909.84;5142473;28;20550;-74
2024/03/15 08:55:58;;;;;;;3.67;2.40;;;;;;;19.26;70.92;99900.84;5141931;28;20046;-74
2024/03/15 08:58:28;;;;;;;5.88;2.45;;;;;;;18.73;71.05;99894.66;5138921;28;20033;-74
2024/03/15 09:01:04;;;;;;;7.60;2.38;;;;;;;18.62;74.05;99903.44;5141727;28;20031;-73
2024/03/15 09:03:34;;;;;;;5.20;2.33;;;;;;;18.32;73.74;99913.78;5139829;28;20034;-74
2024/03/15 09:06:06;;;;;;;4.78;2.28;;;;;;;18.08;74.00;99906.88;5144634;28;20031;-73
2024/03/15 09:08:36;;;;;;;4.45;2.65;;;;;;;18.05;74.98;99907.09;5144001;28;20401;-74
2024/03/15 09:11:07;;;;;;;6.05;2.88;;;;;;;17.84;76.27;99899.00;5141543;28;20023;-73
2024/03/15 09:13:37;;;;;;;7.32;2.80;;;;;;;17.63;76.63;99905.09;5142036;28;20035;-73
2024/03/15 09:16:08;;;;;;;6.95;3.15;;;;;;;17.75;76.58;99909.41;5143415;28;20027;-73
2024/03/15 09:18:39;;;;;;;5.60;3.00;;;;;;;17.76;76.51;99909.31;5140994;28;20065;-74
2024/03/15 09:21:09;;;;;;;5.93;2.70;;;;;;;17.64;75.85;99901.47;5138908;28;20039;-73
2024/03/15 09:23:39;;;;;;;5.80;2.75;;;;;;;17.50;77.54;99899.03;5139555;28;20435;-74
2024/03/15 09:26:10;;;;;;;6.68;2.58;;;;;;;17.77;77.03;99891.63;5140957;28;20035;-74
2024/03/15 09:28:43;;;;;;;5.57;2.78;;;;;;;17.76;78.04;99885.53;5137440;28;20657;-73
2024/03/15 09:31:14;;;;;;;6.72;3.00;;;;;;;17.65;76.97;99893.41;5144120;28;20499;-73
2024/03/15 09:33:47;;;;;;;7.13;3.30;;;;;;;17.54;77.92;99897.81;5138451;28;20046;-73
2024/03/15 09:36:18;;;;;;;4.60;2.75;;;;;;;17.67;77.86;99901.25;5140282;28;20763;-73
2024/03/15 09:38:49;;;;;;;4.82;2.72;;;;;;;17.61;78.27;99901.69;5141120;28;20026;-74
2024/03/15 09:41:19;;;;;;;8.00;3.00;;;;;;;17.99;78.04;99886.44;5141031;28;20076;-72
2024/03/15 09:43:52;;;;;;;7.65;3.03;;;;;;;18.01;77.25;99885.31;5141249;28;20026;-74
2024/03/15 09:46:24;;;;;;;5.00;2.67;;;;;;;18.07;77.06;99895.47;5143334;28;20089;-74
2024/03/15 09:48:56;;;;;;;4.80;2.80;;;;;;;18.22;77.20;99893.41;5142347;28;20034;-74
2024/03/15 09:51:27;;;;;;;5.53;2.80;;;;;;;18.23;76.50;99893.31;5143447;28;20026;-74
2024/03/15 09:53:58;;;;;;;6.60;3.00;;;;;;;18.12;76.14;99893.28;5137819;28;20035;-73
2024/03/15 09:56:29;;;;;;;4.68;2.80;;;;;;;18.09;76.55;99890.03;5139060;28;20505;-73
2024/03/15 09:59:00;;;;;;;7.07;3.05;;;;;;;17.95;76.57;99900.81;5136436;28;20414;-74
2024/03/15 10:01:32;;;;;;;4.78;2.70;;;;;;;17.90;75.88;99895.03;5134924;28;20026;-73
2024/03/15 10:04:05;;;;;;;7.72;2.97;;;;;;;17.71;76.94;99903.53;5139469;28;20042;-74
2024/03/15 10:06:36;;;;;;;6.97;3.13;;;;;;;17.65;78.56;99909.28;5140311;28;20620;-74
2024/03/15 10:09:12;;;;;;;8.65;2.72;;;;;;;17.80;77.72;99902.00;5134488;28;20106;-73
2024/03/15 10:11:42;;;;;;;5.18;2.63;;;;;;;17.94;76.79;99904.44;5136335;28;20035;-74
2024/03/15 10:14:12;;;;;;;5.40;2.75;;;;;;;18.18;76.03;99903.38;5141067;28;20118;-74
2024/03/15 10:16:43;;;;;;;7.90;3.05;;;;;;;18.01;75.89;99910.94;5138706;28;20038;-73
2024/03/15 10:19:13;;;;;;;6.30;3.08;;;;;;;18.04;75.98;99908.06;5138304;28;20034;-73
2024/03/15 10:21:44;;;;;;;6.00;3.20;;;;;;;18.08;76.67;99917.44;5140611;28;20402;-73
2024/03/15 10:24:14;;;;;;;6.43;3.10;;;;;;;18.25;77.42;99919.63;5141223;28;20114;-73
2024/03/15 10:26:44;;;;;;;6.75;3.30;;;;;;;18.05;76.95;99910.59;5140850;28;20258;-73
2024/03/15 10:29:15;;;;;;;5.90;3.17;;;;;;;17.95;76.71;99921.97;5136994;28;20038;-73
2024/03/15 10:31:45;;;;;;;7.47;3.30;;;;;;;17.77;77.13;99926.00;5138161;28;20041;-73
2024/03/15 10:34:17;;;;;;;7.10;3.05;;;;;;;17.74;77.80;99923.59;5137580;28;20486;-74
2024/03/15 10:36:49;;;;;;;5.50;3.00;;;;;;;17.42;77.60;99925.16;5140516;28;20401;-73
2024/03/15 10:39:20;;;;;;;6.93;3.30;;;;;;;17.46;78.51;99924.81;5137482;28;20062;-73
2024/03/15 10:41:51;;;;;;;6.15;3.35;;;;;;;17.22;78.85;99929.22;5138304;28;20043;-73
2024/03/15 10:44:21;;;;;;;6.50;3.40;;;;;;;17.12;79.45;99930.00;5139050;28;20030;-70
2024/03/15 10:46:53;;;;;;;6.05;3.40;;;;;;;17.05;79.64;99926.97;5137918;28;20524;-73
2024/03/15 10:49:24;;;;;;;6.32;3.05;;;;;;;16.92;80.47;99928.78;5134293;28;20022;-73
2024/03/15 10:51:55;;;;;;;5.90;3.28;;;;;;;16.79;81.02;99925.34;5141154;28;20513;-72
2024/03/15 10:54:25;;;;;;;7.82;3.40;;;;;;;16.73;80.77;99927.56;5139356;28;20521;-73
2024/03/15 10:56:55;;;;;;;6.68;3.33;;;;;;;16.56;81.40;99929.72;5140298;28;20077;-73
2024/03/15 10:59:26;;;;;;;7.60;3.33;;;;;;;16.66;81.18;99923.69;5138127;28;20389;-70
2024/03/15 11:01:56;;;;;;;5.47;3.00;;;;;;;16.68;82.65;99924.41;5138954;28;20042;-73
2024/03/15 11:04:27;;;;;;;7.30;3.20;;;;;;;16.77;82.34;99928.19;5140563;28;20028;-69
2024/03/15 11:06:59;;;;;;;7.50;3.38;;;;;;;16.85;81.82;99926.72;5138216;28;20041;-73
2024/03/15 11:09:34;;;;;;;7.35;3.38;;;;;;;16.93;80.78;99929.63;5137476;28;20459;-73
2024/03/15 11:12:04;;;;;;;5.38;3.60;;;;;;;16.90;80.93;99925.44;5136570;28;20034;-70
2024/03/15 11:14:35;;;;;;;5.25;2.85;;;;;;;16.87;80.80;99920.38;5134915;28;20495;-72
2024/03/15 11:17:06;;;;;;;4.68;2.83;;;;;;;16.96;81.23;99926.78;5140769;28;20034;-72
2024/03/15 11:19:46;;;;;;;5.63;3.47;;;;;;;17.00;81.34;99926.44;5136628;28;20034;-73
2024/03/15 11:22:19;;;;;;;6.13;3.50;;;;;;;17.13;80.49;99921.13;5133928;28;20035;-73
2024/03/15 11:24:50;;;;;;;6.95;3.20;;;;;;;17.44;80.17;99918.81;5138565;28;20450;-72
2024/03/15 11:27:21;;;;;;;8.15;3.25;;;;;;;17.63;80.15;99924.41;5137312;28;20034;-73
2024/03/15 11:29:56;;;;;;;8.82;3.78;;;;;;;17.66;78.97;99918.06;5141947;28;20029;-74
2024/03/15 11:32:26;;;;;;;6.53;3.35;;;;;;;17.66;78.83;99920.69;5138112;28;20058;-73
2024/03/15 11:34:57;;;;;;;8.02;3.42;;;;;;;17.65;78.50;99930.41;5140079;28;20053;-72
2024/03/15 11:37:28;;;;;;;7.07;3.47;;;;;;;17.48;79.63;99933.47;5140522;28;20026;-73
2024/03/15 11:40:02;;;;;;;5.57;3.13;;;;;;;17.25;80.53;99925.50;5140350;28;20533;-73
2024/03/15 11:42:32;;;;;;;5.90;3.30;;;;;;;17.19;80.75;99933.88;5136780;28;20421;-74
2024/03/15 11:45:03;;;;;;;7.97;3.65;;;;;;;17.15;81.01;99929.78;5137689;28;20035;-73
2024/03/15 11:47:33;;;;;;;7.97;3.47;;;;;;;17.16;80.39;99929.66;5140472;28;20297;-72
2024/03/15 11:50:12;;;;;;;8.30;3.75;;;;;;;17.06;80.84;99925.16;5136596;28;20035;-74
2024/03/15 11:52:43;;;;;;;7.45;3.72;;;;;;;17.08;81.28;99928.53;5133312;28;20022;-73
2024/03/15 11:55:17;;;;;;;7.95;3.40;;;;;;;17.14;81.19;99928.09;5137732;28;20030;-74
2024/03/15 11:57:48;;;;;;;6.57;3.60;;;;;;;17.21;80.94;99929.34;5133844;28;20039;-73